createdAt,value
2017-11-19T00:00:15.995Z,8.03
2017-11-19T00:02:44.641Z,9.23
2017-11-19T00:05:12.904Z,10.97
2017-11-19T00:07:41.199Z,8.47
2017-11-19T00:10:08.711Z,9.77
2017-11-19T00:12:36.234Z,12.83
2017-11-19T00:15:03.751Z,9.57
2017-11-19T00:17:32.628Z,9.10
2017-11-19T00:20:01.272Z,8.73
2017-11-19T00:22:28.796Z,12.60
2017-11-19T00:24:56.303Z,10.37
2017-11-19T00:27:24.633Z,13.80
2017-11-19T00:29:52.166Z,8.60
2017-11-19T00:32:20.484Z,16.70
2017-11-19T00:34:49.125Z,11.10
2017-11-19T00:37:17.396Z,15.03
2017-11-19T00:39:45.681Z,15.17
2017-11-19T00:42:13.178Z,9.40
2017-11-19T00:44:42.196Z,14.07
2017-11-19T00:47:09.702Z,17.00
2017-11-19T00:49:38.348Z,13.93
2017-11-19T00:52:06.638Z,12.87
2017-11-19T00:54:35.523Z,15.53
2017-11-19T00:57:03.025Z,9.83
2017-11-19T00:59:30.569Z,13.70
2017-11-19T01:01:58.851Z,13.00
2017-11-19T01:04:27.528Z,18.80
2017-11-19T01:06:56.416Z,12.50
2017-11-19T01:09:23.969Z,17.43
2017-11-19T01:11:51.485Z,11.30
2017-11-19T01:14:20.546Z,14.83
2017-11-19T01:16:48.064Z,10.90
2017-11-19T01:19:15.572Z,16.50
2017-11-19T01:21:43.868Z,10.60
2017-11-19T01:24:11.372Z,8.50
2017-11-19T01:26:38.914Z,10.33
2017-11-19T01:29:06.424Z,12.90
2017-11-19T01:31:35.101Z,14.47
2017-11-19T01:34:02.613Z,13.57
2017-11-19T01:36:30.141Z,11.43
2017-11-19T01:38:58.408Z,13.53
2017-11-19T01:41:26.077Z,9.40
2017-11-19T01:43:53.577Z,14.30
2017-11-19T01:46:21.101Z,13.53
2017-11-19T01:48:49.404Z,16.67
2017-11-19T01:51:18.040Z,13.27
2017-11-19T01:53:45.558Z,14.70
2017-11-19T01:56:13.458Z,12.73
2017-11-19T01:58:40.993Z,14.47
2017-11-19T02:01:09.632Z,14.10
2017-11-19T02:03:37.155Z,14.27
2017-11-19T02:06:04.657Z,19.13
2017-11-19T02:08:33.321Z,13.50
2017-11-19T02:11:00.825Z,16.40
2017-11-19T02:13:28.352Z,20.87
2017-11-19T02:15:56.248Z,19.93
2017-11-19T02:18:23.770Z,17.47
2017-11-19T02:20:51.263Z,15.30
2017-11-19T02:23:19.552Z,18.73
2017-11-19T02:25:47.059Z,16.53
2017-11-19T02:28:14.983Z,16.07
2017-11-19T02:30:42.899Z,17.93
2017-11-19T02:33:10.415Z,16.10
2017-11-19T02:35:37.917Z,14.53
2017-11-19T02:38:06.957Z,15.83
2017-11-19T02:40:35.606Z,16.03
2017-11-19T02:43:03.118Z,14.80
2017-11-19T02:45:31.400Z,12.23
2017-11-19T02:47:58.907Z,14.70
2017-11-19T02:50:26.429Z,10.60
2017-11-19T02:52:53.924Z,11.47
2017-11-19T02:55:21.440Z,14.10
2017-11-19T02:57:50.453Z,13.27
2017-11-19T03:00:17.992Z,10.13
2017-11-19T03:02:45.496Z,9.03
2017-11-19T03:05:13.013Z,17.27
2017-11-19T03:07:41.272Z,7.80
2017-11-19T03:10:10.289Z,6.50
2017-11-19T03:12:37.793Z,4.57
2017-11-19T03:15:05.305Z,4.53
2017-11-19T03:17:33.217Z,4.50
2017-11-19T03:20:00.718Z,4.50
2017-11-19T03:22:28.243Z,3.60
2017-11-19T03:24:57.088Z,3.60
2017-11-19T03:27:24.600Z,3.30
2017-11-19T03:29:52.096Z,3.37
2017-11-19T03:32:19.609Z,3.70
2017-11-19T03:34:47.112Z,3.47
2017-11-19T03:37:15.034Z,3.23
2017-11-19T03:39:42.538Z,2.83
2017-11-19T03:42:10.073Z,5.83
2017-11-19T03:44:39.080Z,3.57
2017-11-19T03:47:06.576Z,2.43
2017-11-19T03:49:35.440Z,2.87
2017-11-19T03:52:02.929Z,2.50
2017-11-19T03:54:30.453Z,2.40
2017-11-19T03:56:57.958Z,3.07
2017-11-19T03:59:25.477Z,2.73
2017-11-19T04:01:54.485Z,2.50
2017-11-19T04:04:22.009Z,2.27
2017-11-19T04:06:49.498Z,3.43
2017-11-19T04:09:17.028Z,2.70
2017-11-19T04:11:44.521Z,2.37
2017-11-19T04:14:12.078Z,2.43
2017-11-19T04:16:40.709Z,2.37
2017-11-19T04:19:08.973Z,2.50
2017-11-19T04:21:36.880Z,3.10
2017-11-19T04:24:04.380Z,1.93
2017-11-19T04:26:31.905Z,2.43
2017-11-19T04:28:59.400Z,1.93
2017-11-19T04:31:26.960Z,1.80
2017-11-19T04:33:54.478Z,1.70
2017-11-19T04:36:21.999Z,1.60
2017-11-19T04:38:49.892Z,1.73
2017-11-19T04:41:17.800Z,2.03
2017-11-19T04:43:45.325Z,1.90
2017-11-19T04:46:13.244Z,1.83
2017-11-19T04:48:41.516Z,2.00
2017-11-19T04:51:09.827Z,2.07
2017-11-19T04:53:37.745Z,1.30
2017-11-19T04:56:06.084Z,10.93
2017-11-19T04:58:33.990Z,1.67
2017-11-19T05:01:02.269Z,1.80
2017-11-19T05:03:30.553Z,1.23
2017-11-19T05:05:58.453Z,1.47
2017-11-19T05:08:25.971Z,1.97
2017-11-19T05:10:53.859Z,2.00
2017-11-19T05:13:21.381Z,1.37
2017-11-19T05:15:50.395Z,1.70
2017-11-19T05:18:18.684Z,1.40
2017-11-19T05:20:46.201Z,1.80
2017-11-19T05:23:14.485Z,1.40
2017-11-19T05:25:42.752Z,2.73
2017-11-19T05:28:11.058Z,1.40
2017-11-19T05:30:38.567Z,1.63
2017-11-19T05:33:06.075Z,1.60
2017-11-19T05:35:33.604Z,1.93
2017-11-19T05:38:01.121Z,1.30
2017-11-19T05:40:28.639Z,1.47
2017-11-19T05:42:56.154Z,1.53
2017-11-19T05:45:24.433Z,1.37
2017-11-19T05:47:52.317Z,1.60
2017-11-19T05:50:19.856Z,1.67
2017-11-19T05:52:48.138Z,1.17
2017-11-19T05:55:15.680Z,1.50
2017-11-19T05:57:43.945Z,1.77
2017-11-19T06:00:12.250Z,1.80
2017-11-19T06:02:39.771Z,1.37
2017-11-19T06:05:08.049Z,1.40
2017-11-19T06:07:36.328Z,5.33
2017-11-19T06:10:03.841Z,1.30
2017-11-19T06:12:31.749Z,1.40
2017-11-19T06:15:00.018Z,1.80
2017-11-19T06:17:27.937Z,1.47
2017-11-19T06:19:55.445Z,1.73
2017-11-19T06:22:23.356Z,1.70
2017-11-19T06:24:50.878Z,1.50
2017-11-19T06:27:18.401Z,1.20
2017-11-19T06:29:45.900Z,1.37
2017-11-19T06:32:13.421Z,1.63
2017-11-19T06:34:42.309Z,1.90
2017-11-19T06:37:10.586Z,1.70
2017-11-19T06:39:39.468Z,1.20
2017-11-19T06:42:07.724Z,1.17
2017-11-19T06:44:36.043Z,1.70
2017-11-19T06:47:03.552Z,1.10
2017-11-19T06:49:31.077Z,1.20
2017-11-19T06:51:59.344Z,1.30
2017-11-19T06:54:27.284Z,1.10
2017-11-19T06:56:55.541Z,1.20
2017-11-19T06:59:23.817Z,1.40
2017-11-19T07:01:52.092Z,1.00
2017-11-19T07:04:20.966Z,1.30
2017-11-19T07:06:48.853Z,1.40
2017-11-19T07:09:16.396Z,1.27
2017-11-19T07:11:45.265Z,1.43
2017-11-19T07:14:13.160Z,1.20
2017-11-19T07:16:40.673Z,1.17
2017-11-19T07:19:08.565Z,1.13
2017-11-19T07:21:36.094Z,1.20
2017-11-19T07:24:03.998Z,1.60
2017-11-19T07:26:31.523Z,1.70
2017-11-19T07:28:59.020Z,1.40
2017-11-19T07:31:27.298Z,7.20
2017-11-19T07:33:55.189Z,1.50
2017-11-19T07:36:23.864Z,1.60
2017-11-19T07:38:52.876Z,1.20
2017-11-19T07:41:20.403Z,1.30
2017-11-19T07:43:47.904Z,1.20
2017-11-19T07:46:15.429Z,1.13
2017-11-19T07:48:42.932Z,2.20
2017-11-19T07:51:11.974Z,1.67
2017-11-19T07:53:39.469Z,0.93
2017-11-19T07:56:07.724Z,1.20
2017-11-19T07:58:36.024Z,1.20
2017-11-19T08:01:03.520Z,1.17
2017-11-19T08:03:31.027Z,1.07
2017-11-19T08:05:59.875Z,0.93
2017-11-19T08:08:27.389Z,1.23
2017-11-19T08:10:54.880Z,1.00
2017-11-19T08:13:22.400Z,1.37
2017-11-19T08:15:51.032Z,1.10
2017-11-19T08:18:18.547Z,1.03
2017-11-19T08:20:47.176Z,1.37
2017-11-19T08:23:14.693Z,1.50
2017-11-19T08:25:42.194Z,1.33
2017-11-19T08:28:10.136Z,2.07
2017-11-19T08:30:37.632Z,1.20
2017-11-19T08:33:06.488Z,1.20
2017-11-19T08:35:34.401Z,1.60
2017-11-19T08:38:01.904Z,1.33
2017-11-19T08:40:29.422Z,1.20
2017-11-19T08:42:56.920Z,2.50
2017-11-19T08:45:24.440Z,1.40
2017-11-19T08:47:52.700Z,1.90
2017-11-19T08:50:20.229Z,2.13
2017-11-19T08:52:47.729Z,2.30
2017-11-19T08:55:15.261Z,1.83
2017-11-19T08:57:43.530Z,2.37
2017-11-19T09:00:11.050Z,2.00
2017-11-19T09:02:38.952Z,1.90
2017-11-19T09:05:06.879Z,1.93
2017-11-19T09:07:34.371Z,2.30
2017-11-19T09:10:02.269Z,2.03
2017-11-19T09:12:29.783Z,2.43
2017-11-19T09:14:58.420Z,2.50
2017-11-19T09:17:26.348Z,2.43
2017-11-19T09:19:55.348Z,1.70
2017-11-19T09:22:23.273Z,2.10
2017-11-19T09:24:52.120Z,2.13
2017-11-19T09:27:19.632Z,1.70
2017-11-19T09:29:47.908Z,3.13
2017-11-19T09:32:16.209Z,2.13
2017-11-19T09:34:44.472Z,2.67
2017-11-19T09:37:11.988Z,4.70
2017-11-19T09:39:39.877Z,6.20
2017-11-19T09:42:07.395Z,2.33
2017-11-19T09:44:36.256Z,2.33
2017-11-19T09:47:04.217Z,1.73
2017-11-19T09:49:32.476Z,3.60
2017-11-19T09:52:00.822Z,2.50
2017-11-19T09:54:28.745Z,1.80
2017-11-19T09:56:56.257Z,2.07
2017-11-19T09:59:23.795Z,4.17
2017-11-19T10:01:51.298Z,2.50
2017-11-19T10:04:19.581Z,2.30
2017-11-19T10:06:47.872Z,2.80
2017-11-19T10:09:15.409Z,2.67
2017-11-19T10:11:42.909Z,2.57
2017-11-19T10:14:10.435Z,1.87
2017-11-19T10:16:38.376Z,2.57
2017-11-19T10:19:05.920Z,3.13
2017-11-19T10:21:34.569Z,2.40
2017-11-19T10:24:02.465Z,3.90
2017-11-19T10:26:30.413Z,3.50
2017-11-19T10:28:58.061Z,3.43
2017-11-19T10:31:25.596Z,2.20
2017-11-19T10:33:54.007Z,2.80
2017-11-19T10:36:21.660Z,2.67
2017-11-19T10:38:49.935Z,3.63
2017-11-19T10:41:18.928Z,3.00
2017-11-19T10:43:46.426Z,2.93
2017-11-19T10:46:14.128Z,3.33
2017-11-19T10:48:42.410Z,4.80
2017-11-19T10:51:09.923Z,4.03
2017-11-19T10:53:37.450Z,3.37
2017-11-19T10:56:06.313Z,3.10
2017-11-19T10:58:33.860Z,4.07
2017-11-19T11:01:01.364Z,3.47
2017-11-19T11:03:28.889Z,2.80
2017-11-19T11:05:56.407Z,2.20
2017-11-19T11:08:25.453Z,2.70
2017-11-19T11:10:54.996Z,14.33
2017-11-19T11:13:23.208Z,4.07
2017-11-19T11:15:51.216Z,2.53
2017-11-19T11:18:18.757Z,2.67
2017-11-19T11:20:46.288Z,2.43
2017-11-19T11:23:14.839Z,3.73
2017-11-19T11:25:42.352Z,4.10
2017-11-19T11:28:10.281Z,2.90
2017-11-19T11:30:37.789Z,2.57
2017-11-19T11:33:06.470Z,2.60
2017-11-19T11:35:34.753Z,2.10
2017-11-19T11:38:02.717Z,4.40
2017-11-19T11:40:31.357Z,4.00
2017-11-19T11:42:58.856Z,2.80
2017-11-19T11:45:26.388Z,3.63
2017-11-19T11:47:53.903Z,5.70
2017-11-19T11:50:21.432Z,1.70
2017-11-19T11:52:48.933Z,3.00
2017-11-19T11:55:16.450Z,1.37
2017-11-19T11:57:43.943Z,2.10
2017-11-19T12:00:11.857Z,6.10
2017-11-19T12:02:39.359Z,1.43
2017-11-19T12:05:06.885Z,4.40
2017-11-19T12:07:35.544Z,3.03
2017-11-19T12:10:04.573Z,2.20
2017-11-19T12:12:32.180Z,1.67
2017-11-19T12:14:59.693Z,1.53
2017-11-19T12:17:27.187Z,4.67
2017-11-19T12:19:54.690Z,1.63
2017-11-19T12:22:22.216Z,1.20
2017-11-19T12:24:51.079Z,3.23
2017-11-19T12:27:19.958Z,3.00
2017-11-19T12:29:47.451Z,2.37
2017-11-19T12:32:14.977Z,2.23
2017-11-19T12:34:42.496Z,2.87
2017-11-19T12:37:11.525Z,2.00
2017-11-19T12:39:39.020Z,1.60
2017-11-19T12:42:06.525Z,1.80
2017-11-19T12:44:34.123Z,2.80
2017-11-19T12:47:02.529Z,1.70
2017-11-19T12:49:30.475Z,2.93
2017-11-19T12:51:59.112Z,2.40
2017-11-19T12:54:27.996Z,2.40
2017-11-19T12:56:55.496Z,1.80
2017-11-19T12:59:23.367Z,3.80
2017-11-19T13:01:52.220Z,2.03
2017-11-19T13:04:19.865Z,2.53
2017-11-19T13:06:47.769Z,2.30
2017-11-19T13:09:16.506Z,2.03
2017-11-19T13:11:44.437Z,1.47
2017-11-19T13:14:12.019Z,1.93
2017-11-19T13:16:40.833Z,1.93
2017-11-19T13:19:09.124Z,5.30
2017-11-19T13:21:37.766Z,2.90
2017-11-19T13:24:05.677Z,3.13
2017-11-19T13:26:33.189Z,2.30
2017-11-19T13:38:51.904Z,2.93
2017-11-19T13:41:20.786Z,2.53
2017-11-19T13:43:49.635Z,2.33
2017-11-19T13:46:18.658Z,7.93
2017-11-19T13:48:46.161Z,12.00
2017-11-19T13:51:13.684Z,4.40
2017-11-19T13:53:41.603Z,3.20
2017-11-19T13:56:09.143Z,3.03
2017-11-19T13:58:37.415Z,2.60
2017-11-19T14:01:06.143Z,2.30
2017-11-19T14:03:33.655Z,2.67
2017-11-19T14:06:01.592Z,12.90
2017-11-19T14:08:29.487Z,2.30
2017-11-19T14:10:57.404Z,6.93
2017-11-19T14:13:24.925Z,2.10
2017-11-19T14:15:53.808Z,2.63
2017-11-19T14:18:22.714Z,2.33
2017-11-19T14:20:50.243Z,11.37
2017-11-19T14:23:18.162Z,2.20
2017-11-19T14:25:45.692Z,4.93
2017-11-19T14:28:14.551Z,2.70
2017-11-19T14:30:42.072Z,2.93
2017-11-19T14:33:09.570Z,2.43
2017-11-19T14:35:37.101Z,7.90
2017-11-19T14:38:04.611Z,4.33
2017-11-19T14:40:32.133Z,4.67
2017-11-19T14:42:59.641Z,4.87
2017-11-19T14:45:27.167Z,2.40
2017-11-19T14:47:54.673Z,1.50
2017-11-19T14:50:22.617Z,2.33
2017-11-19T14:52:50.114Z,2.10
2017-11-19T14:55:18.788Z,10.37
2017-11-19T14:57:47.421Z,1.87
2017-11-19T15:00:15.350Z,3.43
2017-11-19T15:02:42.840Z,4.93
2017-11-19T15:05:10.358Z,9.37
2017-11-19T15:07:38.639Z,6.30
2017-11-19T15:10:06.551Z,4.90
2017-11-19T15:12:34.081Z,6.60
2017-11-19T15:15:01.995Z,10.00
2017-11-19T15:17:30.652Z,5.93
2017-11-19T15:19:58.191Z,3.43
2017-11-19T15:22:26.116Z,5.53
2017-11-19T15:24:53.614Z,4.40
2017-11-19T15:27:21.248Z,4.20
2017-11-19T15:29:48.757Z,5.30
2017-11-19T15:32:16.295Z,12.93
2017-11-19T15:34:43.794Z,10.50
2017-11-19T15:37:11.314Z,10.50
2017-11-19T15:39:38.813Z,5.47
2017-11-19T15:42:06.357Z,6.50
2017-11-19T15:44:34.261Z,4.20
2017-11-19T15:47:01.817Z,8.87
2017-11-19T15:49:30.834Z,14.97
2017-11-19T15:51:58.349Z,14.50
2017-11-19T15:54:26.640Z,13.27
2017-11-19T15:56:54.131Z,8.93
2017-11-19T15:59:21.661Z,3.13
2017-11-19T16:01:49.185Z,7.93
2017-11-19T16:04:16.709Z,3.53
2017-11-19T16:06:44.236Z,6.17
2017-11-19T16:09:11.763Z,8.53
2017-11-19T16:11:40.393Z,5.37
2017-11-19T16:14:07.918Z,5.07
2017-11-19T16:16:36.196Z,3.40
2017-11-19T16:19:03.737Z,12.13
2017-11-19T16:21:31.245Z,3.17
2017-11-19T16:23:59.543Z,5.13
2017-11-19T16:26:28.548Z,6.73
2017-11-19T16:28:57.421Z,2.90
2017-11-19T16:31:24.920Z,8.10
2017-11-19T16:33:52.480Z,6.90
2017-11-19T16:36:19.987Z,2.97
2017-11-19T16:38:48.996Z,2.63
2017-11-19T16:41:17.277Z,2.83
2017-11-19T16:43:44.777Z,3.00
2017-11-19T16:46:13.667Z,6.20
2017-11-19T16:48:41.176Z,2.80
2017-11-19T16:51:08.732Z,2.83
2017-11-19T16:53:36.240Z,2.70
2017-11-19T16:56:04.177Z,4.40
2017-11-19T16:58:31.672Z,9.07
2017-11-19T17:00:59.184Z,9.87
2017-11-19T17:03:27.084Z,3.67
2017-11-19T17:05:54.613Z,8.40
2017-11-19T17:08:22.105Z,3.50
2017-11-19T17:10:50.388Z,5.23
2017-11-19T17:13:19.294Z,3.77
2017-11-19T17:15:47.249Z,9.30
2017-11-19T17:18:14.777Z,10.77
2017-11-19T17:20:42.693Z,6.20
2017-11-19T17:23:10.274Z,3.13
2017-11-19T17:25:37.749Z,3.07
2017-11-19T17:28:06.638Z,9.00
2017-11-19T17:30:34.914Z,5.50
2017-11-19T17:33:03.573Z,6.80
2017-11-19T17:35:31.081Z,6.90
2017-11-19T17:37:58.648Z,3.83
2017-11-19T17:40:26.140Z,8.50
2017-11-19T17:42:53.646Z,3.30
2017-11-19T17:45:21.588Z,3.63
2017-11-19T17:47:49.109Z,4.57
2017-11-19T17:50:17.409Z,2.93
2017-11-19T17:52:46.276Z,3.17
2017-11-19T17:55:14.197Z,2.50
2017-11-19T17:57:41.701Z,3.43
2017-11-19T18:00:09.391Z,2.80
2017-11-19T18:02:36.893Z,8.30
2017-11-19T18:05:04.410Z,7.60
2017-11-19T18:07:32.692Z,5.13
2017-11-19T18:10:00.995Z,6.07
2017-11-19T18:12:28.504Z,3.27
2017-11-19T18:14:56.793Z,3.13
2017-11-19T18:17:24.292Z,4.87
2017-11-19T18:19:52.581Z,3.40
2017-11-19T18:22:20.848Z,2.30
2017-11-19T18:24:48.447Z,2.50
2017-11-19T18:27:17.088Z,2.80
2017-11-19T18:29:44.633Z,10.70
2017-11-19T18:32:12.524Z,3.23
2017-11-19T18:34:41.167Z,3.00
2017-11-19T18:37:08.681Z,3.60
2017-11-19T18:39:36.185Z,2.83
2017-11-19T18:42:03.708Z,2.67
2017-11-19T18:44:31.986Z,3.23
2017-11-19T18:47:00.037Z,4.33
2017-11-19T18:49:27.547Z,2.50
2017-11-19T18:51:55.854Z,6.40
2017-11-19T18:54:24.492Z,8.87
2017-11-19T18:56:52.409Z,39.90
2017-11-19T18:59:19.941Z,20.37
2017-11-19T19:01:48.976Z,2.73
2017-11-19T19:04:16.468Z,14.53
2017-11-19T19:06:44.025Z,3.50
2017-11-19T19:09:11.536Z,5.97
2017-11-19T19:11:39.812Z,12.53
2017-11-19T19:14:07.305Z,9.20
2017-11-19T19:16:34.828Z,6.23
2017-11-19T19:19:02.474Z,2.57
2017-11-19T19:21:30.411Z,3.13
2017-11-19T19:23:58.683Z,7.20
2017-11-19T19:26:27.082Z,3.93
2017-11-19T19:28:54.599Z,11.03
2017-11-19T19:31:23.636Z,10.00
2017-11-19T19:33:52.264Z,3.30
2017-11-19T19:36:21.110Z,4.00
2017-11-19T19:38:48.641Z,3.97
2017-11-19T19:41:16.917Z,6.83
2017-11-19T19:43:44.507Z,5.33
2017-11-19T19:46:12.411Z,3.50
2017-11-19T19:48:41.551Z,2.70
2017-11-19T19:51:09.817Z,5.40
2017-11-19T19:53:37.732Z,4.40
2017-11-19T19:56:05.239Z,19.27
2017-11-19T19:58:32.772Z,4.47
2017-11-19T20:01:00.282Z,3.73
2017-11-19T20:03:27.802Z,2.97
2017-11-19T20:05:55.312Z,2.50
2017-11-19T20:08:22.851Z,5.30
2017-11-19T20:10:50.365Z,4.77
2017-11-19T20:13:19.234Z,11.33
2017-11-19T20:15:48.111Z,5.20
2017-11-19T20:18:16.390Z,25.80
2017-11-19T20:20:44.672Z,2.40
2017-11-19T20:23:12.191Z,4.33
2017-11-19T20:25:39.700Z,2.47
2017-11-19T20:28:07.197Z,8.63
2017-11-19T20:30:35.854Z,5.43
2017-11-19T20:33:03.372Z,7.37
2017-11-19T20:35:30.899Z,6.00
2017-11-19T20:37:58.413Z,2.70
2017-11-19T20:40:26.338Z,3.70
2017-11-19T20:42:54.989Z,6.00
2017-11-19T20:45:23.641Z,3.37
2017-11-19T20:47:51.539Z,4.53
2017-11-19T20:50:19.064Z,2.50
2017-11-19T20:52:46.984Z,3.40
2017-11-19T20:55:15.659Z,3.93
2017-11-19T20:57:44.576Z,5.13
2017-11-19T21:00:12.093Z,2.20
2017-11-19T21:02:40.020Z,2.30
2017-11-19T21:05:07.533Z,2.40
2017-11-19T21:07:35.070Z,6.13
2017-11-19T21:10:03.072Z,7.13
2017-11-19T21:12:30.592Z,5.23
2017-11-19T21:14:58.079Z,6.93
2017-11-19T21:17:27.120Z,9.33
2017-11-19T21:19:54.734Z,2.70
2017-11-19T21:22:23.019Z,4.20
2017-11-19T21:24:50.511Z,2.50
2017-11-19T21:27:18.420Z,4.03
2017-11-19T21:29:45.917Z,3.70
2017-11-19T21:32:13.637Z,5.37
2017-11-19T21:34:41.300Z,4.50
2017-11-19T21:37:08.808Z,2.60
2017-11-19T21:39:36.337Z,6.73
2017-11-19T21:42:04.680Z,2.20
2017-11-19T21:44:32.204Z,3.93
2017-11-19T21:47:00.613Z,4.60
2017-11-19T21:49:29.314Z,2.60
2017-11-19T21:51:57.960Z,5.33
2017-11-19T21:54:26.991Z,4.17
2017-11-19T21:56:54.484Z,3.03
2017-11-19T21:59:22.032Z,2.97
2017-11-19T22:01:50.660Z,3.23
2017-11-19T22:04:19.682Z,3.57
2017-11-19T22:06:47.208Z,3.47
2017-11-19T22:09:14.731Z,9.00
2017-11-19T22:11:42.335Z,2.20
2017-11-19T22:14:10.244Z,2.30
2017-11-19T22:16:37.744Z,3.13
2017-11-19T22:19:06.670Z,2.43
2017-11-19T22:21:34.171Z,3.07
2017-11-19T22:24:02.468Z,2.43
2017-11-19T22:26:30.749Z,2.57
2017-11-19T22:28:59.041Z,2.90
2017-11-19T22:31:26.576Z,2.80
2017-11-19T22:33:55.224Z,2.80
2017-11-19T22:36:23.615Z,2.60
2017-11-19T22:38:51.523Z,7.00
2017-11-19T22:41:19.027Z,4.43
2017-11-19T22:43:47.698Z,7.60
2017-11-19T22:46:16.342Z,6.87
2017-11-19T22:48:43.857Z,4.20
2017-11-19T22:51:11.379Z,3.07
2017-11-19T22:53:39.484Z,3.30
2017-11-19T22:56:07.151Z,3.27
2017-11-19T22:58:34.811Z,13.03
2017-11-19T23:01:02.337Z,5.67
2017-11-19T23:03:30.607Z,4.70
2017-11-19T23:05:59.426Z,2.93
2017-11-19T23:08:26.941Z,3.10
2017-11-19T23:10:55.766Z,5.00
2017-11-19T23:13:23.268Z,3.90
2017-11-19T23:15:50.880Z,4.00
2017-11-19T23:18:18.788Z,5.33
2017-11-19T23:20:46.393Z,5.50
2017-11-19T23:23:13.900Z,2.80
2017-11-19T23:25:42.739Z,8.43
2017-11-19T23:28:10.248Z,6.57
2017-11-19T23:30:38.671Z,4.70
2017-11-19T23:33:06.312Z,3.27
2017-11-19T23:35:34.592Z,5.27
2017-11-19T23:38:03.228Z,3.53
2017-11-19T23:40:31.345Z,3.07
2017-11-19T23:42:59.012Z,4.20
2017-11-19T23:45:27.292Z,3.03
2017-11-19T23:47:54.937Z,3.07
2017-11-19T23:50:23.595Z,2.67
2017-11-19T23:52:52.313Z,3.77
2017-11-19T23:55:19.912Z,3.67
2017-11-19T23:57:48.175Z,4.17
